createdAt,value
2023-04-12T00:00:59.468Z,1472.00
2023-04-12T00:01:59.510Z,1468.00
2023-04-12T00:02:59.610Z,1463.00
2023-04-12T00:03:59.780Z,1464.00
2023-04-12T00:04:59.523Z,1460.00
2023-04-12T00:05:59.505Z,1462.00
2023-04-12T00:06:59.513Z,1461.00
2023-04-12T00:07:58.513Z,1458.00
2023-04-12T00:08:59.531Z,1455.00
2023-04-12T00:09:59.540Z,1454.00
2023-04-12T00:10:59.557Z,1455.00
2023-04-12T00:11:58.558Z,1455.00
2023-04-12T00:12:59.572Z,1457.00
2023-04-12T00:13:59.590Z,1459.00
2023-04-12T00:14:59.570Z,1456.00
2023-04-12T00:15:59.674Z,1449.00
2023-04-12T00:16:58.602Z,1446.00
2023-04-12T00:17:58.722Z,1443.00
2023-04-12T00:18:59.613Z,1444.00
2023-04-12T00:19:58.603Z,1444.00
2023-04-12T00:20:59.620Z,1442.00
2023-04-12T00:21:59.628Z,1443.00
2023-04-12T00:22:58.622Z,1442.00
2023-04-12T00:23:59.019Z,1440.00
2023-04-12T00:24:59.643Z,1436.00
2023-04-12T00:25:59.652Z,1436.00
2023-04-12T00:26:58.648Z,1431.00
2023-04-12T00:27:58.653Z,1429.00
2023-04-12T00:28:58.688Z,1430.00
2023-04-12T00:29:58.680Z,1430.00
2023-04-12T00:30:59.691Z,1429.00
2023-04-12T00:31:58.723Z,1430.00
2023-04-12T00:32:59.756Z,1433.00
2023-04-12T00:33:59.723Z,1434.00
2023-04-12T00:34:58.716Z,1435.00
2023-04-12T00:35:59.740Z,1434.00
2023-04-12T00:36:59.746Z,1432.00
2023-04-12T00:37:59.740Z,1434.00
2023-04-12T00:38:59.801Z,1435.00
2023-04-12T00:39:59.780Z,1435.00
2023-04-12T00:40:58.795Z,1435.00
2023-04-12T00:41:58.802Z,1435.00
2023-04-12T00:42:59.821Z,1435.00
2023-04-12T00:44:00.024Z,1433.00
2023-04-12T00:44:59.878Z,1434.00
2023-04-12T00:45:58.875Z,1432.00
2023-04-12T00:46:58.938Z,1433.00
2023-04-12T00:47:58.996Z,1431.00
2023-04-12T00:48:59.949Z,1430.00
2023-04-12T00:49:59.932Z,1426.00
2023-04-12T00:50:59.929Z,1424.00
2023-04-12T00:51:59.944Z,1422.00
2023-04-12T00:52:59.945Z,1422.00
2023-04-12T00:53:59.949Z,1422.00
2023-04-12T00:54:58.940Z,1421.00
2023-04-12T00:55:59.961Z,1421.00
2023-04-12T00:56:59.965Z,1419.00
2023-04-12T00:57:59.977Z,1417.00
2023-04-12T00:58:58.985Z,1416.00
2023-04-12T00:59:59.968Z,1414.00
2023-04-12T01:01:00.018Z,1412.00
2023-04-12T01:01:59.048Z,1412.00
2023-04-12T01:02:59.209Z,1413.00
2023-04-12T01:03:59.198Z,1410.00
2023-04-12T01:04:59.002Z,1415.00
2023-04-12T01:05:59.970Z,1415.00
2023-04-12T01:06:58.969Z,1415.00
2023-04-12T01:07:59.947Z,1412.00
2023-04-12T01:08:59.943Z,1411.00
2023-04-12T01:09:59.960Z,1411.00
2023-04-12T01:10:59.951Z,1408.00
2023-04-12T01:11:59.947Z,1405.00
2023-04-12T01:12:58.943Z,1406.00
2023-04-12T01:13:58.956Z,1402.00
2023-04-12T01:14:59.974Z,1404.00
2023-04-12T01:16:00.100Z,1403.00
2023-04-12T01:16:59.947Z,1400.00
2023-04-12T01:18:00.027Z,1401.00
2023-04-12T01:18:58.984Z,1398.00
2023-04-12T01:20:00.054Z,1398.00
2023-04-12T01:21:00.023Z,1396.00
2023-04-12T01:22:00.100Z,1395.00
2023-04-12T01:22:59.104Z,1392.00
2023-04-12T01:24:00.133Z,1391.00
2023-04-12T01:24:59.155Z,1388.00
2023-04-12T01:25:59.237Z,1387.00
2023-04-12T01:27:00.186Z,1388.00
2023-04-12T01:27:59.212Z,1389.00
2023-04-12T01:29:00.185Z,1391.00
2023-04-12T01:30:00.216Z,1388.00
2023-04-12T01:31:00.226Z,1391.00
2023-04-12T01:31:59.346Z,1392.00
2023-04-12T01:33:00.318Z,1393.00
2023-04-12T01:33:59.650Z,1389.00
2023-04-12T01:35:00.323Z,1389.00
2023-04-12T01:36:00.421Z,1390.00
2023-04-12T01:37:00.414Z,1391.00
2023-04-12T01:38:00.472Z,1393.00
2023-04-12T01:39:00.532Z,1392.00
2023-04-12T01:40:00.602Z,1388.00
2023-04-12T01:40:59.637Z,1387.00
2023-04-12T01:41:59.688Z,1387.00
2023-04-12T01:42:59.752Z,1384.00
2023-04-12T01:44:00.811Z,1385.00
2023-04-12T01:44:59.875Z,1384.00
2023-04-12T01:45:59.972Z,1383.00
2023-04-12T01:47:00.967Z,1382.00
2023-04-12T01:48:00.138Z,1378.00
2023-04-12T01:49:00.057Z,1376.00
2023-04-12T01:50:01.162Z,1372.00
2023-04-12T01:51:01.185Z,1371.00
2023-04-12T01:52:01.263Z,1371.00
2023-04-12T01:53:01.315Z,1369.00
2023-04-12T01:54:01.370Z,1368.00
2023-04-12T01:55:00.460Z,1369.00
2023-04-12T01:56:01.513Z,1370.00
2023-04-12T01:57:01.572Z,1371.00
2023-04-12T01:58:01.652Z,1369.00
2023-04-12T01:59:00.674Z,1371.00
2023-04-12T02:00:01.784Z,1369.00
2023-04-12T02:01:01.828Z,1366.00
2023-04-12T02:02:00.955Z,1365.00
2023-04-12T02:03:02.094Z,1362.00
2023-04-12T02:04:01.751Z,1364.00
2023-04-12T02:05:01.048Z,1369.00
2023-04-12T02:06:02.093Z,1370.00
2023-04-12T02:07:02.149Z,1369.00
2023-04-12T02:08:01.232Z,1366.00
2023-04-12T02:09:02.307Z,1365.00
2023-04-12T02:10:02.369Z,1363.00
2023-04-12T02:11:02.379Z,1359.00
2023-04-12T02:12:01.434Z,1353.00
2023-04-12T02:13:01.515Z,1354.00
2023-04-12T02:14:02.559Z,1353.00
2023-04-12T02:15:02.612Z,1352.00
2023-04-12T02:16:01.678Z,1352.00
2023-04-12T02:17:01.795Z,1351.00
2023-04-12T02:18:01.840Z,1350.00
2023-04-12T02:19:01.808Z,1348.00
2023-04-12T02:20:02.862Z,1347.00
2023-04-12T02:21:01.928Z,1348.00
2023-04-12T02:22:03.027Z,1346.00
2023-04-12T02:23:02.056Z,1344.00
2023-04-12T02:24:02.122Z,1342.00
2023-04-12T02:25:03.168Z,1338.00
2023-04-12T02:26:03.230Z,1337.00
2023-04-12T02:27:03.294Z,1336.00
2023-04-12T02:28:02.366Z,1339.00
2023-04-12T02:29:03.391Z,1340.00
2023-04-12T02:30:03.452Z,1339.00
2023-04-12T02:31:02.546Z,1338.00
2023-04-12T02:32:03.562Z,1336.00
2023-04-12T02:33:02.732Z,1335.00
2023-04-12T02:34:03.684Z,1334.00
2023-04-12T02:35:03.724Z,1334.00
2023-04-12T02:36:03.821Z,1335.00
2023-04-12T02:37:02.875Z,1334.00
2023-04-12T02:38:03.912Z,1334.00
2023-04-12T02:39:03.943Z,1332.00
2023-04-12T02:40:04.043Z,1331.00
2023-04-12T02:41:03.088Z,1329.00
2023-04-12T02:42:04.134Z,1330.00
2023-04-12T02:43:03.175Z,1332.00
2023-04-12T02:44:04.218Z,1332.00
2023-04-12T02:45:03.271Z,1331.00
2023-04-12T02:46:04.398Z,1329.00
2023-04-12T02:47:04.394Z,1326.00
2023-04-12T02:48:04.468Z,1322.00
2023-04-12T02:49:03.507Z,1326.00
2023-04-12T02:50:04.574Z,1326.00
2023-04-12T02:51:04.605Z,1328.00
2023-04-12T02:52:04.676Z,1328.00
2023-04-12T02:53:03.732Z,1322.00
2023-04-12T02:54:04.786Z,1322.00
2023-04-12T02:55:04.871Z,1325.00
2023-04-12T02:56:06.212Z,1324.00
2023-04-12T02:57:04.921Z,1326.00
2023-04-12T02:58:03.915Z,1326.00
2023-04-12T02:59:04.885Z,1326.00
2023-04-12T03:00:04.875Z,1327.00
2023-04-12T03:01:04.971Z,1329.00
2023-04-12T03:02:04.339Z,1326.00
2023-04-12T03:03:05.062Z,1323.00
2023-04-12T03:04:04.004Z,1321.00
2023-04-12T03:05:03.881Z,1321.00
2023-04-12T03:06:04.856Z,1322.00
2023-04-12T03:07:03.835Z,1322.00
2023-04-12T03:08:04.874Z,1321.00
2023-04-12T03:09:04.842Z,1319.00
2023-04-12T03:10:03.831Z,1319.00
2023-04-12T03:11:03.815Z,1318.00
2023-04-12T03:12:04.853Z,1316.00
2023-04-12T03:13:04.807Z,1315.00
2023-04-12T03:14:04.796Z,1313.00
2023-04-12T03:15:04.831Z,1314.00
2023-04-12T03:16:04.844Z,1314.00
2023-04-12T03:17:04.805Z,1313.00
2023-04-12T03:18:04.818Z,1316.00
2023-04-12T03:19:03.768Z,1316.00
2023-04-12T03:20:04.773Z,1317.00
2023-04-12T03:21:04.757Z,1315.00
2023-04-12T03:22:04.818Z,1312.00
2023-04-12T03:23:04.882Z,1316.00
2023-04-12T03:24:03.954Z,1315.00
2023-04-12T03:25:05.002Z,1316.00
2023-04-12T03:26:05.056Z,1319.00
2023-04-12T03:27:04.133Z,1319.00
2023-04-12T03:28:05.189Z,1316.00
2023-04-12T03:29:05.212Z,1313.00
2023-04-12T03:30:04.276Z,1313.00
2023-04-12T03:31:04.372Z,1308.00
2023-04-12T03:32:05.405Z,1305.00
2023-04-12T03:33:05.486Z,1305.00
2023-04-12T03:34:05.596Z,1303.00
2023-04-12T03:35:05.561Z,1299.00
2023-04-12T03:36:05.691Z,1302.00
2023-04-12T03:37:04.716Z,1302.00
2023-04-12T03:38:05.731Z,1301.00
2023-04-12T03:39:05.793Z,1302.00
2023-04-12T03:40:05.863Z,1300.00
2023-04-12T03:41:05.924Z,1300.00
2023-04-12T03:42:06.042Z,1299.00
2023-04-12T03:43:06.036Z,1297.00
2023-04-12T03:44:06.113Z,1297.00
2023-04-12T03:45:06.165Z,1296.00
2023-04-12T03:46:06.221Z,1294.00
2023-04-12T03:47:06.298Z,1295.00
2023-04-12T03:48:05.337Z,1295.00
2023-04-12T03:49:05.390Z,1295.00
2023-04-12T03:50:11.373Z,1295.00
2023-04-12T03:51:06.441Z,1293.00
2023-04-12T03:52:05.419Z,1293.00
2023-04-12T03:53:06.407Z,1292.00
2023-04-12T03:54:06.408Z,1293.00
2023-04-12T03:55:06.393Z,1297.00
2023-04-12T03:56:06.397Z,1294.00
2023-04-12T03:57:06.393Z,1294.00
2023-04-12T03:58:05.364Z,1294.00
2023-04-12T03:59:05.353Z,1292.00
2023-04-12T04:00:05.396Z,1293.00
2023-04-12T04:01:05.361Z,1289.00
2023-04-12T04:02:05.449Z,1288.00
2023-04-12T04:03:06.578Z,1287.00
2023-04-12T04:04:05.742Z,1289.00
2023-04-12T04:05:05.597Z,1287.00
2023-04-12T04:06:05.620Z,1288.00
2023-04-12T04:07:06.671Z,1290.00
2023-04-12T04:08:05.717Z,1289.00
2023-04-12T04:09:06.781Z,1288.00
2023-04-12T04:10:06.839Z,1285.00
2023-04-12T04:11:08.489Z,1282.00
2023-04-12T04:12:05.896Z,1283.00
2023-04-12T04:13:06.893Z,1283.00
2023-04-12T04:14:05.865Z,1281.00
2023-04-12T04:15:06.877Z,1280.00
2023-04-12T04:16:06.998Z,1279.00
2023-04-12T04:17:05.861Z,1277.00
2023-04-12T04:18:05.847Z,1275.00
2023-04-12T04:19:06.834Z,1273.00
2023-04-12T04:20:05.836Z,1272.00
2023-04-12T04:21:06.841Z,1270.00
2023-04-12T04:22:06.819Z,1269.00
2023-04-12T04:23:06.811Z,1270.00
2023-04-12T04:24:05.799Z,1269.00
2023-04-12T04:25:06.800Z,1271.00
2023-04-12T04:26:06.781Z,1274.00
2023-04-12T04:27:06.798Z,1271.00
2023-04-12T04:28:06.779Z,1269.00
2023-04-12T04:29:06.755Z,1267.00
2023-04-12T04:30:06.763Z,1265.00
2023-04-12T04:31:06.768Z,1265.00
2023-04-12T04:32:06.847Z,1265.00
2023-04-12T04:33:06.820Z,1264.00
2023-04-12T04:34:05.740Z,1265.00
2023-04-12T04:35:05.723Z,1262.00
2023-04-12T04:36:06.738Z,1259.00
2023-04-12T04:37:05.765Z,1258.00
2023-04-12T04:38:06.834Z,1256.00
2023-04-12T04:39:06.890Z,1254.00
2023-04-12T04:40:05.942Z,1253.00
2023-04-12T04:41:06.998Z,1248.00
2023-04-12T04:42:07.052Z,1248.00
2023-04-12T04:43:08.308Z,1249.00
2023-04-12T04:44:07.146Z,1247.00
2023-04-12T04:45:07.208Z,1248.00
2023-04-12T04:46:06.308Z,1247.00
2023-04-12T04:47:07.329Z,1247.00
2023-04-12T04:48:06.467Z,1245.00
2023-04-12T04:49:07.437Z,1245.00
2023-04-12T04:50:07.489Z,1247.00
2023-04-12T04:51:07.549Z,1243.00
2023-04-12T04:52:07.606Z,1241.00
2023-04-12T04:53:06.640Z,1242.00
2023-04-12T04:54:07.706Z,1239.00
2023-04-12T04:55:10.583Z,1238.00
2023-04-12T04:56:07.758Z,1239.00
2023-04-12T04:57:06.771Z,1239.00
2023-04-12T04:58:07.731Z,1238.00
2023-04-12T04:59:07.750Z,1238.00
2023-04-12T05:00:07.725Z,1236.00
2023-04-12T05:01:07.812Z,1237.00
2023-04-12T05:02:07.859Z,1236.00
2023-04-12T05:03:07.762Z,1238.00
2023-04-12T05:04:08.125Z,1236.00
2023-04-12T05:05:07.701Z,1235.00
2023-04-12T05:06:07.690Z,1236.00
2023-04-12T05:07:07.733Z,1237.00
2023-04-12T05:08:07.707Z,1237.00
2023-04-12T05:09:07.686Z,1238.00
2023-04-12T05:10:06.700Z,1241.00
2023-04-12T05:11:07.703Z,1244.00
2023-04-12T05:12:06.692Z,1240.00
2023-04-12T05:13:07.759Z,1238.00
2023-04-12T05:14:07.799Z,1238.00
2023-04-12T05:15:11.468Z,1239.00
2023-04-12T05:16:07.875Z,1238.00
2023-04-12T05:17:06.863Z,1239.00
2023-04-12T05:18:06.912Z,1234.00
2023-04-12T05:19:06.845Z,1232.00
2023-04-12T05:20:07.898Z,1231.00
2023-04-12T05:21:06.818Z,1227.00
2023-04-12T05:22:06.832Z,1226.00
2023-04-12T05:23:07.808Z,1228.00
2023-04-12T05:24:07.788Z,1227.00
2023-04-12T05:25:07.794Z,1233.00
2023-04-12T05:26:07.881Z,1237.00
2023-04-12T05:27:06.967Z,1245.00
2023-04-12T05:28:06.977Z,1249.00
2023-04-12T05:29:08.025Z,1254.00
2023-04-12T05:30:08.119Z,1262.00
2023-04-12T05:31:08.220Z,1267.00
2023-04-12T05:32:08.221Z,1264.00
2023-04-12T05:33:08.266Z,1265.00
2023-04-12T05:34:08.335Z,1270.00
2023-04-12T05:35:08.381Z,1271.00
2023-04-12T05:36:08.429Z,1279.00
2023-04-12T05:37:08.476Z,1287.00
2023-04-12T05:38:07.508Z,1295.00
2023-04-12T05:39:07.565Z,1302.00
2023-04-12T05:40:08.607Z,1306.00
2023-04-12T05:41:07.693Z,1313.00
2023-04-12T05:42:08.698Z,1317.00
2023-04-12T05:43:08.710Z,1327.00
2023-04-12T05:44:07.766Z,1339.00
2023-04-12T05:45:08.797Z,1334.00
2023-04-12T05:46:08.862Z,1341.00
2023-04-12T05:47:07.899Z,1347.00
2023-04-12T05:48:09.014Z,1436.00
2023-04-12T05:49:08.902Z,1589.00
2023-04-12T05:50:08.974Z,1484.00
2023-04-12T05:51:09.020Z,1504.00
2023-04-12T05:52:09.286Z,1497.00
2023-04-12T05:53:09.080Z,1502.00
2023-04-12T05:54:08.053Z,1495.00
2023-04-12T05:55:09.177Z,1509.00
2023-04-12T05:56:08.154Z,1535.00
2023-04-12T05:57:09.122Z,1564.00
2023-04-12T05:58:08.124Z,1624.00
2023-04-12T05:59:09.545Z,1646.00
2023-04-12T06:00:08.138Z,1770.00
2023-04-12T06:01:09.136Z,1783.00
2023-04-12T06:02:10.324Z,1802.00
2023-04-12T06:03:09.233Z,1836.00
2023-04-12T06:04:09.639Z,1833.00
2023-04-12T06:05:09.272Z,1839.00
2023-04-12T06:06:09.221Z,1849.00
2023-04-12T06:07:08.224Z,1864.00
2023-04-12T06:08:09.404Z,1883.00
2023-04-12T06:09:09.275Z,1974.00
2023-04-12T06:10:08.306Z,1999.00
2023-04-12T06:11:09.294Z,2045.00
2023-04-12T06:12:09.370Z,2062.00
2023-04-12T06:13:09.339Z,2075.00
2023-04-12T06:14:11.656Z,2069.00
2023-04-12T06:15:08.252Z,2087.00
2023-04-12T06:16:08.261Z,2109.00
2023-04-12T06:17:09.245Z,2121.00
2023-04-12T06:18:09.202Z,2143.00
2023-04-12T06:19:09.205Z,2239.00
2023-04-12T06:20:09.206Z,2231.00
2023-04-12T06:21:09.180Z,2240.00
2023-04-12T06:22:09.204Z,2244.00
2023-04-12T06:23:09.202Z,2261.00
2023-04-12T06:24:08.183Z,2321.00
2023-04-12T06:25:09.155Z,2343.00
2023-04-12T06:26:09.165Z,2353.00
2023-04-12T06:27:09.149Z,2365.00
2023-04-12T06:28:09.129Z,2363.00
2023-04-12T06:29:08.128Z,2391.00
2023-04-12T06:30:08.118Z,2415.00
2023-04-12T06:31:09.165Z,2439.00
2023-04-12T06:32:08.112Z,2517.00
2023-04-12T06:33:09.156Z,2456.00
2023-04-12T06:34:09.078Z,2466.00
2023-04-12T06:35:09.290Z,2515.00
2023-04-12T06:36:08.117Z,2565.00
2023-04-12T06:37:08.083Z,2599.00
2023-04-12T06:38:09.077Z,2575.00
2023-04-12T06:39:09.037Z,2567.00
2023-04-12T06:40:09.278Z,2568.00
2023-04-12T06:41:09.061Z,2609.00
2023-04-12T06:42:09.034Z,2647.00
2023-04-12T06:43:09.031Z,2653.00
2023-04-12T06:44:09.016Z,2672.00
2023-04-12T06:45:09.218Z,2683.00
2023-04-12T06:46:09.009Z,2703.00
2023-04-12T06:47:09.259Z,2714.00
2023-04-12T06:48:08.024Z,2746.00
2023-04-12T06:49:08.974Z,2850.00
2023-04-12T06:50:09.019Z,2838.00
2023-04-12T06:51:08.988Z,2821.00
2023-04-12T06:52:09.250Z,2646.00
2023-04-12T06:53:08.993Z,2604.00
2023-04-12T06:54:08.951Z,2178.00
2023-04-12T06:55:08.957Z,2113.00
2023-04-12T06:56:08.957Z,2421.00
2023-04-12T06:57:09.148Z,2487.00
2023-04-12T06:58:07.957Z,2490.00
2023-04-12T06:59:07.938Z,2609.00
2023-04-12T07:00:08.917Z,2635.00
2023-04-12T07:01:08.041Z,2672.00
2023-04-12T07:02:08.921Z,2373.00
2023-04-12T07:03:07.926Z,2424.00
2023-04-12T07:04:07.917Z,1910.00
2023-04-12T07:05:08.868Z,2221.00
2023-04-12T07:06:21.916Z,2229.00
2023-04-12T07:07:08.876Z,2245.00
2023-04-12T07:08:07.846Z,2303.00
2023-04-12T07:09:08.841Z,2427.00
2023-04-12T07:10:07.888Z,2530.00
2023-04-12T07:12:09.029Z,2567.00
2023-04-12T07:13:08.840Z,2597.00
2023-04-12T07:14:08.805Z,2621.00
2023-04-12T07:15:07.798Z,2652.00
2023-04-12T07:16:07.965Z,2697.00
2023-04-12T07:17:08.999Z,2705.00
2023-04-12T07:18:08.795Z,2725.00
2023-04-12T07:19:08.866Z,2740.00
2023-04-12T07:20:07.822Z,2737.00
2023-04-12T07:21:08.791Z,2783.00
2023-04-12T07:22:07.761Z,2734.00
2023-04-12T07:23:08.867Z,2505.00
2023-04-12T07:24:07.752Z,2536.00
2023-04-12T07:25:08.733Z,2524.00
2023-04-12T07:26:08.741Z,2583.00
2023-04-12T07:27:08.729Z,2623.00
2023-04-12T07:28:09.188Z,2476.00
2023-04-12T07:29:08.709Z,2630.00
2023-04-12T07:30:08.718Z,2577.00
2023-04-12T07:31:08.698Z,2510.00
2023-04-12T07:32:08.685Z,2589.00
2023-04-12T07:33:18.887Z,2664.00
2023-04-12T07:34:08.849Z,2659.00
2023-04-12T07:35:08.719Z,2714.00
2023-04-12T07:36:08.733Z,2798.00
2023-04-12T07:37:08.915Z,2787.00
2023-04-12T07:38:08.816Z,2814.00
2023-04-12T07:39:07.640Z,2833.00
2023-04-12T07:40:08.718Z,2831.00
2023-04-12T07:41:08.660Z,2866.00
2023-04-12T07:42:08.831Z,2891.00
2023-04-12T07:43:08.634Z,2909.00
2023-04-12T07:44:07.800Z,2966.00
2023-04-12T07:45:07.624Z,2969.00
2023-04-12T07:46:08.833Z,3002.00
2023-04-12T07:47:08.695Z,3013.00
2023-04-12T07:48:07.755Z,2990.00
2023-04-12T07:49:07.788Z,2989.00
2023-04-12T07:50:08.581Z,3212.00
2023-04-12T07:51:08.753Z,3083.00
2023-04-12T07:52:08.576Z,3051.00
2023-04-12T07:53:07.677Z,3022.00
2023-04-12T07:54:08.603Z,3006.00
2023-04-12T07:55:08.582Z,3017.00
2023-04-12T07:56:07.610Z,3024.00
2023-04-12T07:57:08.566Z,3032.00
2023-04-12T07:58:08.543Z,3034.00
2023-04-12T07:59:07.538Z,3034.00
2023-04-12T08:00:08.631Z,3039.00
2023-04-12T08:01:07.577Z,3038.00
2023-04-12T08:02:08.735Z,3033.00
2023-04-12T08:03:08.859Z,3027.00
2023-04-12T08:04:07.863Z,3021.00
2023-04-12T08:05:07.694Z,3019.00
2023-04-12T08:06:08.899Z,3021.00
2023-04-12T08:07:08.662Z,3017.00
2023-04-12T08:08:08.699Z,3014.00
2023-04-12T08:09:08.665Z,3014.00
2023-04-12T08:10:07.657Z,3012.00
2023-04-12T08:11:08.692Z,3009.00
2023-04-12T08:12:08.726Z,3010.00
2023-04-12T08:13:08.737Z,3008.00
2023-04-12T08:14:08.704Z,3004.00
2023-04-12T08:15:08.817Z,3000.00
2023-04-12T08:16:07.759Z,2998.00
2023-04-12T08:17:08.765Z,2993.00
2023-04-12T08:18:07.860Z,2998.00
2023-04-12T08:19:07.820Z,2997.00
2023-04-12T08:20:08.838Z,2991.00
2023-04-12T08:21:07.901Z,2986.00
2023-04-12T08:22:07.870Z,2980.00
2023-04-12T08:23:08.950Z,2979.00
2023-04-12T08:24:08.978Z,2981.00
2023-04-12T08:25:08.037Z,2981.00
2023-04-12T08:26:08.038Z,2980.00
2023-04-12T08:27:09.094Z,2978.00
2023-04-12T08:28:09.148Z,2978.00
2023-04-12T08:29:09.171Z,2976.00
2023-04-12T08:30:08.237Z,2975.00
2023-04-12T08:31:09.306Z,2975.00
2023-04-12T08:32:09.354Z,2973.00
2023-04-12T08:33:08.348Z,2974.00
2023-04-12T08:34:09.422Z,2964.00
2023-04-12T08:35:09.491Z,2964.00
2023-04-12T08:36:09.550Z,2963.00
2023-04-12T08:37:09.586Z,2967.00
2023-04-12T08:38:09.645Z,2961.00
2023-04-12T08:39:09.689Z,2958.00
2023-04-12T08:40:09.741Z,2958.00
2023-04-12T08:41:08.850Z,2955.00
2023-04-12T08:42:09.936Z,2947.00
2023-04-12T08:43:10.183Z,2947.00
2023-04-12T08:44:09.028Z,2945.00
2023-04-12T08:45:10.169Z,2937.00
2023-04-12T08:46:10.142Z,2935.00
2023-04-12T08:47:10.190Z,2933.00
2023-04-12T08:48:10.768Z,2931.00
2023-04-12T08:49:10.290Z,2928.00
2023-04-12T08:50:10.348Z,2920.00
2023-04-12T08:51:10.388Z,2917.00
2023-04-12T08:52:10.418Z,2921.00
2023-04-12T08:53:10.577Z,2919.00
2023-04-12T08:54:10.520Z,2915.00
2023-04-12T08:55:09.613Z,2914.00
2023-04-12T08:56:09.582Z,2912.00
2023-04-12T08:57:10.697Z,2911.00
2023-04-12T08:58:10.704Z,2908.00
2023-04-12T08:59:10.640Z,2904.00
2023-04-12T09:00:09.729Z,2906.00
2023-04-12T09:01:10.862Z,2908.00
2023-04-12T09:02:10.780Z,2903.00
2023-04-12T09:03:11.099Z,2899.00
2023-04-12T09:04:10.266Z,2896.00
2023-04-12T09:05:09.887Z,2896.00
2023-04-12T09:06:09.834Z,2892.00
2023-04-12T09:07:09.825Z,2889.00
2023-04-12T09:08:10.876Z,2883.00
2023-04-12T09:09:10.913Z,2885.00
2023-04-12T09:10:10.963Z,2885.00
2023-04-12T09:11:10.009Z,2882.00
2023-04-12T09:12:11.012Z,2882.00
2023-04-12T09:13:11.025Z,2878.00
2023-04-12T09:14:10.054Z,2872.00
2023-04-12T09:15:11.073Z,2871.00
2023-04-12T09:16:11.093Z,2869.00
2023-04-12T09:17:10.154Z,2868.00
2023-04-12T09:18:11.064Z,2864.00
2023-04-12T09:19:11.025Z,2863.00
2023-04-12T09:20:11.094Z,2862.00
2023-04-12T09:21:10.136Z,2857.00
2023-04-12T09:22:11.097Z,2857.00
2023-04-12T09:23:11.108Z,2855.00
2023-04-12T09:24:14.289Z,2853.00
2023-04-12T09:25:10.101Z,2848.00
2023-04-12T09:26:11.080Z,2843.00
2023-04-12T09:27:10.115Z,2841.00
2023-04-12T09:28:11.088Z,2837.00
2023-04-12T09:29:11.079Z,2833.00
2023-04-12T09:30:11.049Z,2831.00
2023-04-12T09:31:11.075Z,2829.00
2023-04-12T09:32:10.031Z,2834.00
2023-04-12T09:33:11.032Z,2836.00
2023-04-12T09:34:11.019Z,2834.00
2023-04-12T09:35:11.007Z,2828.00
2023-04-12T09:36:11.059Z,2821.00
2023-04-12T09:37:11.057Z,2819.00
2023-04-12T09:38:11.049Z,1907.00
2023-04-12T09:39:11.087Z,1421.00
2023-04-12T09:40:11.035Z,1175.00
2023-04-12T09:41:09.974Z,1045.00
2023-04-12T09:42:21.529Z,867.00
2023-04-12T09:43:11.173Z,841.00
2023-04-12T09:44:11.227Z,804.00
2023-04-12T09:45:11.229Z,778.00
2023-04-12T09:46:10.288Z,888.00
2023-04-12T09:47:10.201Z,801.00
2023-04-12T09:48:11.376Z,720.00
2023-04-12T09:49:10.989Z,770.00
2023-04-12T09:50:11.095Z,702.00
2023-04-12T09:51:10.962Z,649.00
2023-04-12T09:52:10.148Z,652.00
2023-04-12T09:53:11.205Z,656.00
2023-04-12T09:54:10.896Z,656.00
2023-04-12T09:55:10.975Z,651.00
2023-04-12T09:56:11.048Z,743.00
2023-04-12T09:57:09.898Z,710.00
2023-04-12T09:58:09.907Z,700.00
2023-04-12T09:59:11.563Z,674.00
2023-04-12T10:00:11.106Z,669.00
2023-04-12T10:01:10.155Z,614.00
2023-04-12T10:02:10.975Z,771.00
2023-04-12T10:03:11.129Z,642.00
2023-04-12T10:04:11.074Z,601.00
2023-04-12T10:05:11.081Z,674.00
2023-04-12T10:06:10.966Z,618.00
2023-04-12T10:07:13.170Z,557.00
2023-04-12T10:08:10.098Z,550.00
2023-04-12T10:09:10.247Z,544.00
2023-04-12T10:10:10.017Z,596.00
2023-04-12T10:11:11.043Z,579.00
2023-04-12T10:12:11.056Z,634.00
2023-04-12T10:13:11.049Z,590.00
2023-04-12T10:14:10.991Z,597.00
2023-04-12T10:15:10.075Z,575.00
2023-04-12T10:16:11.036Z,598.00
2023-04-12T10:17:09.971Z,687.00
2023-04-12T10:18:11.029Z,666.00
2023-04-12T10:19:10.946Z,537.00
2023-04-12T10:20:09.969Z,612.00
2023-04-12T10:21:10.947Z,566.00
2023-04-12T10:22:10.942Z,550.00
2023-04-12T10:23:11.018Z,546.00
2023-04-12T10:24:11.232Z,554.00
2023-04-12T10:25:10.931Z,539.00
2023-04-12T10:26:10.915Z,834.00
2023-04-12T10:27:10.911Z,567.00
2023-04-12T10:28:11.115Z,584.00
2023-04-12T10:29:10.885Z,594.00
2023-04-12T10:30:10.908Z,618.00
2023-04-12T10:31:11.055Z,608.00
2023-04-12T10:32:10.908Z,620.00
2023-04-12T10:33:09.960Z,663.00
2023-04-12T10:34:09.867Z,637.00
2023-04-12T10:35:09.914Z,568.00
2023-04-12T10:36:11.122Z,705.00
2023-04-12T10:37:11.186Z,647.00
2023-04-12T10:38:11.068Z,606.00
2023-04-12T10:39:11.212Z,546.00
2023-04-12T10:40:10.193Z,606.00
2023-04-12T10:41:11.201Z,586.00
2023-04-12T10:42:10.259Z,730.00
2023-04-12T10:43:10.750Z,643.00
2023-04-12T10:44:11.312Z,758.00
2023-04-12T10:45:10.377Z,705.00
2023-04-12T10:46:11.705Z,713.00
2023-04-12T10:47:10.535Z,682.00
2023-04-12T10:48:11.844Z,799.00
2023-04-12T10:49:11.663Z,779.00
2023-04-12T10:50:10.619Z,876.00
2023-04-12T10:51:10.694Z,806.00
2023-04-12T10:52:10.763Z,855.00
2023-04-12T10:53:10.790Z,918.00
2023-04-12T10:54:12.297Z,914.00
2023-04-12T10:55:11.884Z,964.00
2023-04-12T10:56:11.918Z,987.00
2023-04-12T10:57:11.869Z,1003.00
2023-04-12T10:58:10.880Z,1014.00
2023-04-12T10:59:11.840Z,1074.00
2023-04-12T11:00:11.778Z,1072.00
2023-04-12T11:01:11.979Z,1077.00
2023-04-12T11:02:11.179Z,1134.00
2023-04-12T11:03:12.766Z,1133.00
2023-04-12T11:04:11.389Z,1156.00
2023-04-12T11:05:12.276Z,1167.00
2023-04-12T11:06:26.609Z,1245.00
2023-04-12T11:07:12.431Z,1230.00
2023-04-12T11:08:12.157Z,1284.00
2023-04-12T11:09:11.178Z,1225.00
2023-04-12T11:10:12.388Z,1223.00
2023-04-12T11:11:11.135Z,1235.00
2023-04-12T11:12:12.208Z,1266.00
2023-04-12T11:13:12.252Z,1277.00
2023-04-12T11:14:12.128Z,1299.00
2023-04-12T11:15:11.251Z,1371.00
2023-04-12T11:16:12.279Z,1389.00
2023-04-12T11:17:12.280Z,1358.00
2023-04-12T11:18:12.264Z,1369.00
2023-04-12T11:19:12.093Z,1389.00
2023-04-12T11:20:12.081Z,1405.00
2023-04-12T11:21:12.082Z,1412.00
2023-04-12T11:22:12.236Z,1428.00
2023-04-12T11:23:12.074Z,1431.00
2023-04-12T11:24:13.838Z,1432.00
2023-04-12T11:25:12.048Z,1467.00
2023-04-12T11:26:12.033Z,1447.00
2023-04-12T11:27:11.053Z,1444.00
2023-04-12T11:28:27.351Z,1475.00
2023-04-12T11:29:12.019Z,1478.00
2023-04-12T11:30:12.098Z,1493.00
2023-04-12T11:31:11.004Z,1522.00
2023-04-12T11:32:12.229Z,1517.00
2023-04-12T11:33:12.040Z,1516.00
2023-04-12T11:34:15.375Z,1523.00
2023-04-12T11:35:11.980Z,1544.00
2023-04-12T11:36:11.993Z,1634.00
2023-04-12T11:37:11.961Z,1366.00
2023-04-12T11:38:10.944Z,1324.00
2023-04-12T11:39:11.956Z,1443.00
2023-04-12T11:40:12.020Z,1313.00
2023-04-12T11:41:11.937Z,1325.00
2023-04-12T11:42:11.942Z,1343.00
2023-04-12T11:43:11.942Z,1297.00
2023-04-12T11:44:11.290Z,1300.00
2023-04-12T11:45:17.606Z,1286.00
2023-04-12T11:46:12.130Z,1288.00
2023-04-12T11:47:12.757Z,1296.00
2023-04-12T11:48:12.077Z,1297.00
2023-04-12T11:49:11.058Z,1294.00
2023-04-12T11:50:12.036Z,1290.00
2023-04-12T11:51:12.003Z,1281.00
2023-04-12T11:52:12.021Z,1277.00
2023-04-12T11:53:11.032Z,1271.00
2023-04-12T11:54:10.994Z,1266.00
2023-04-12T11:55:11.156Z,1259.00
2023-04-12T11:56:11.042Z,1252.00
2023-04-12T11:57:11.106Z,1244.00
2023-04-12T11:58:12.163Z,1233.00
2023-04-12T11:59:12.239Z,1231.00
2023-04-12T12:00:12.313Z,1232.00
2023-04-12T12:01:12.384Z,1228.00
2023-04-12T12:02:22.719Z,1226.00
2023-04-12T12:03:12.500Z,1222.00
2023-04-12T12:04:11.501Z,1216.00
2023-04-12T12:05:12.889Z,1209.00
2023-04-12T12:06:12.103Z,1045.00
2023-04-12T12:07:12.570Z,828.00
2023-04-12T12:08:11.356Z,725.00
2023-04-12T12:09:11.633Z,681.00
2023-04-12T12:10:11.423Z,617.00